^^
Saratoga-Weather Station Historical Data
Daily Summary for August 28, 2021 Units:  Metric    English   Both
Daily Weekly Monthly Yearly Custom
  High: Low: Average:
Temperature: 20.4 °C 6.7 °C 13.8 °C
Dew Point: 10.2 °C 5.6 °C 8.3 °C
Humidity: 95% 49% 71%
Wind Speed: 13km/h 0km/h 2km/h
Wind Gust: 17.7km/h - -
Wind- - ESE
Pressure: 1023.0 hPa 1019.6 hPa -
Precipitation: 0.0 mm    
Historical Graphs
 
 
Tabular Data for August 28, 2021
Time Temperature Dew Point Pressure Wind Wind Speed Wind Gust Humidity Rainfall Rate (Hourly) solar
00:03 11.5 °C 9.1 °C 1021.0 hPa West 3.2 km/h 6.4 km/h 85% 0.0 mm 0 W/m2
00:08 11.6 °C 9 °C 1021.3 hPa WNW 1.4 km/h 3.2 km/h 84% 0.0 mm 0 W/m2
00:13 11.5 °C 8.9 °C 1021.3 hPa Calm     84% 0.0 mm 0 W/m2
00:18 11.4 °C 8.8 °C 1021.3 hPa Calm     84% 0.0 mm 0 W/m2
00:23 11.3 °C 8.7 °C 1021.3 hPa Calm   3.2 km/h 84% 0.0 mm 0 W/m2
00:28 11.2 °C 8.8 °C 1021.3 hPa ENE 1.4 km/h 4.8 km/h 85% 0.0 mm 0 W/m2
00:33 11.2 °C 8.8 °C 1021.3 hPa Calm   1.6 km/h 85% 0.0 mm 0 W/m2
00:38 11.2 °C 8.8 °C 1021.3 hPa SSW 1.4 km/h 3.2 km/h 85% 0.0 mm 0 W/m2
00:43 11.2 °C 8.6 °C 1021.3 hPa NW 1.4 km/h 4.8 km/h 84% 0.0 mm 0 W/m2
00:48 11.2 °C 8.6 °C 1021.3 hPa NW 1.4 km/h 4.8 km/h 84% 0.0 mm 0 W/m2
00:53 11.1 °C 8.5 °C 1021.3 hPa WNW 3.2 km/h 6.4 km/h 84% 0.0 mm 0 W/m2
00:58 11.1 °C 8.5 °C 1021.3 hPa NNE 1.4 km/h 3.2 km/h 84% 0.0 mm 0 W/m2
01:03 11.1 °C 8.5 °C 1021.3 hPa Calm   6.4 km/h 84% 0.0 mm 0 W/m2
01:08 11 °C 8.4 °C 1021.3 hPa Calm     84% 0.0 mm 0 W/m2
01:13 10.9 °C 8.3 °C 1021.3 hPa Calm   1.6 km/h 84% 0.0 mm 0 W/m2
01:18 10.7 °C 8.3 °C 1021.3 hPa Calm     85% 0.0 mm 0 W/m2
01:23 10.6 °C 8.2 °C 1021.3 hPa SE 1.4 km/h 1.6 km/h 85% 0.0 mm 0 W/m2
01:28 10.4 °C 8.2 °C 1021.3 hPa WSW 1.4 km/h 3.2 km/h 86% 0.0 mm 0 W/m2
01:33 10.3 °C 8.2 °C 1021.3 hPa Calm   1.6 km/h 87% 0.0 mm 0 W/m2
01:38 10.2 °C 8.1 °C 1021.3 hPa Calm     87% 0.0 mm 0 W/m2
01:43 10 °C 7.9 °C 1021.3 hPa Calm   1.6 km/h 87% 0.0 mm 0 W/m2
01:48 9.8 °C 7.7 °C 1021.3 hPa East 1.4 km/h 3.2 km/h 87% 0.0 mm 0 W/m2
01:53 9.7 °C 7.8 °C 1021.3 hPa Calm   1.6 km/h 88% 0.0 mm 0 W/m2
01:58 9.6 °C 7.7 °C 1021.3 hPa Calm   1.6 km/h 88% 0.0 mm 0 W/m2
02:03 9.4 °C 7.7 °C 1021.3 hPa Calm   3.2 km/h 89% 0.0 mm 0 W/m2
02:08 9.3 °C 7.6 °C 1021.3 hPa SSE 1.4 km/h 1.6 km/h 89% 0.0 mm 0 W/m2
02:13 9.3 °C 7.6 °C 1021.3 hPa Calm     89% 0.0 mm 0 W/m2
02:18 9.3 °C 7.6 °C 1021.3 hPa Calm     89% 0.0 mm 0 W/m2
02:23 9.2 °C 7.5 °C 1021.3 hPa Calm     89% 0.0 mm 0 W/m2
02:28 9.1 °C 7.4 °C 1021.3 hPa Calm   3.2 km/h 89% 0.0 mm 0 W/m2
02:33 9 °C 7.4 °C 1021.3 hPa Calm   1.6 km/h 90% 0.0 mm 0 W/m2
02:38 8.9 °C 7.3 °C 1021.3 hPa Calm   1.6 km/h 90% 0.0 mm 0 W/m2
02:43 8.8 °C 7.2 °C 1021.3 hPa Calm   1.6 km/h 90% 0.0 mm 0 W/m2
02:48 8.8 °C 7.2 °C 1021.3 hPa Calm     90% 0.0 mm 0 W/m2
02:53 8.7 °C 7.2 °C 1021.3 hPa Calm   1.6 km/h 90% 0.0 mm 0 W/m2
02:58 8.6 °C 7.1 °C 1021.3 hPa Calm   1.6 km/h 90% 0.0 mm 0 W/m2
03:03 8.5 °C 7 °C 1021.3 hPa Calm     90% 0.0 mm 0 W/m2
03:08 8.4 °C 7 °C 1021.3 hPa Calm   1.6 km/h 91% 0.0 mm 0 W/m2
03:13 8.4 °C 7 °C 1021.3 hPa Calm     91% 0.0 mm 0 W/m2
03:18 8.3 °C 6.8 °C 1021.3 hPa Calm     90% 0.0 mm 0 W/m2
03:23 8.2 °C 6.8 °C 1021.3 hPa SSE 1.4 km/h 3.2 km/h 91% 0.0 mm 0 W/m2
03:28 8.2 °C 6.8 °C 1021.3 hPa SSE 1.4 km/h 1.6 km/h 91% 0.0 mm 0 W/m2
03:33 8.1 °C 6.7 °C 1021.3 hPa Calm   1.6 km/h 91% 0.0 mm 0 W/m2
03:38 8.1 °C 6.7 °C 1021.3 hPa Calm     91% 0.0 mm 0 W/m2
03:43 7.9 °C 6.5 °C 1021.7 hPa SSE 1.4 km/h 3.2 km/h 91% 0.0 mm 0 W/m2
03:48 7.8 °C 6.4 °C 1021.7 hPa Calm     91% 0.0 mm 0 W/m2
03:53 7.8 °C 6.4 °C 1021.7 hPa Calm   1.6 km/h 91% 0.0 mm 0 W/m2
03:58 7.7 °C 6.3 °C 1021.7 hPa Calm     91% 0.0 mm 0 W/m2
04:04 7.7 °C 6.3 °C 1021.7 hPa Calm     91% 0.0 mm 0 W/m2
04:09 7.6 °C 6.4 °C 1021.3 hPa Calm     92% 0.0 mm 0 W/m2
04:14 7.5 °C 6.3 °C 1021.7 hPa Calm     92% 0.0 mm 0 W/m2
04:19 7.4 °C 6.2 °C 1021.7 hPa Calm     92% 0.0 mm 0 W/m2
04:24 7.4 °C 6.2 °C 1021.7 hPa Calm     92% 0.0 mm 0 W/m2
04:29 7.4 °C 6.2 °C 1021.3 hPa Calm     92% 0.0 mm 0 W/m2
04:34 7.4 °C 6.3 °C 1021.3 hPa Calm     93% 0.0 mm 0 W/m2
04:39 7.3 °C 6.1 °C 1021.7 hPa Calm     92% 0.0 mm 0 W/m2
04:44 7.3 °C 6.1 °C 1021.7 hPa Calm     92% 0.0 mm 0 W/m2
04:49 7.2 °C 6 °C 1021.7 hPa Calm     92% 0.0 mm 0 W/m2
04:54 7.2 °C 6.1 °C 1021.7 hPa Calm     93% 0.0 mm 0 W/m2
04:59 7.2 °C 6.1 °C 1021.7 hPa Calm     93% 0.0 mm 0 W/m2
05:04 7.2 °C 6.1 °C 1021.7 hPa Calm     93% 0.0 mm 0 W/m2
05:09 7.2 °C 6.1 °C 1021.7 hPa Calm     93% 0.0 mm 0 W/m2
05:14 7.1 °C 6 °C 1021.7 hPa Calm     93% 0.0 mm 0 W/m2
05:19 7 °C 5.9 °C 1021.7 hPa Calm     93% 0.0 mm 0 W/m2
05:24 6.9 °C 5.8 °C 1021.7 hPa Calm     93% 0.0 mm 0 W/m2
05:29 6.8 °C 5.7 °C 1021.7 hPa Calm     93% 0.0 mm 0 W/m2
05:34 6.8 °C 5.7 °C 1021.7 hPa Calm     93% 0.0 mm 0 W/m2
05:39 6.8 °C 5.7 °C 1021.7 hPa Calm     93% 0.0 mm 0 W/m2
05:44 6.8 °C 5.7 °C 1021.7 hPa Calm     93% 0.0 mm 5 W/m2
05:49 6.8 °C 5.7 °C 1021.7 hPa Calm     93% 0.0 mm 7 W/m2
05:54 6.7 °C 5.6 °C 1022.0 hPa Calm     93% 0.0 mm 9 W/m2
05:59 6.7 °C 5.8 °C 1022.0 hPa Calm     94% 0.0 mm 11 W/m2
06:04 6.7 °C 5.8 °C 1021.7 hPa Calm     94% 0.0 mm 11 W/m2
06:09 6.7 °C 5.8 °C 1021.7 hPa Calm     94% 0.0 mm 12 W/m2
06:14 6.7 °C 5.8 °C 1022.0 hPa Calm     94% 0.0 mm 18 W/m2
06:19 6.8 °C 5.9 °C 1022.0 hPa Calm     94% 0.0 mm 19 W/m2
06:24 6.9 °C 6 °C 1021.7 hPa Calm     94% 0.0 mm 19 W/m2
06:29 6.9 °C 6 °C 1022.0 hPa Calm     94% 0.0 mm 21 W/m2
06:34 7.1 °C 6.2 °C 1022.0 hPa Calm     94% 0.0 mm 25 W/m2
06:39 7.2 °C 6.3 °C 1022.0 hPa Calm   1.6 km/h 94% 0.0 mm 26 W/m2
06:44 7.2 °C 6.5 °C 1022.0 hPa Calm   1.6 km/h 95% 0.0 mm 28 W/m2
06:49 7.3 °C 6.4 °C 1022.0 hPa Calm     94% 0.0 mm 30 W/m2
06:54 7.4 °C 6.5 °C 1022.4 hPa ESE 1.4 km/h 1.6 km/h 94% 0.0 mm 32 W/m2
06:59 7.6 °C 6.7 °C 1022.4 hPa Calm   1.6 km/h 94% 0.0 mm 33 W/m2
07:04 7.7 °C 6.8 °C 1022.4 hPa Calm   1.6 km/h 94% 0.0 mm 37 W/m2
07:09 7.8 °C 6.7 °C 1022.4 hPa Calm   1.6 km/h 93% 0.0 mm 40 W/m2
07:14 7.9 °C 6.8 °C 1022.4 hPa NE 3.2 km/h 6.4 km/h 93% 0.0 mm 44 W/m2
07:19 8.1 °C 7 °C 1022.4 hPa NE 1.4 km/h 3.2 km/h 93% 0.0 mm 47 W/m2
07:24 8.2 °C 7 °C 1022.4 hPa Calm   4.8 km/h 92% 0.0 mm 49 W/m2
07:29 8.3 °C 7.1 °C 1022.4 hPa Calm   3.2 km/h 92% 0.0 mm 62 W/m2
07:34 8.4 °C 7.2 °C 1022.7 hPa Calm   1.6 km/h 92% 0.0 mm 63 W/m2
07:39 8.6 °C 7.2 °C 1022.7 hPa North 1.4 km/h 3.2 km/h 91% 0.0 mm 54 W/m2
07:44 8.7 °C 7.2 °C 1022.7 hPa Calm   1.6 km/h 90% 0.0 mm 67 W/m2
07:49 8.8 °C 7.2 °C 1022.7 hPa Calm   3.2 km/h 90% 0.0 mm 174 W/m2
07:54 9 °C 7.4 °C 1022.7 hPa Calm   1.6 km/h 90% 0.0 mm 260 W/m2
07:59 9.2 °C 7.5 °C 1022.7 hPa Calm   3.2 km/h 89% 0.0 mm 121 W/m2
08:04 9.6 °C 7.9 °C 1022.7 hPa Calm   3.2 km/h 89% 0.0 mm 113 W/m2
08:09 10.2 °C 8.3 °C 1022.7 hPa NE 1.4 km/h 3.2 km/h 88% 0.0 mm 116 W/m2
08:14 10.6 °C 8.2 °C 1022.7 hPa NE 1.4 km/h 3.2 km/h 85% 0.0 mm 127 W/m2
08:19 10.8 °C 8.2 °C 1022.7 hPa NNW 4.7 km/h 4.8 km/h 84% 0.0 mm 132 W/m2
08:24 10.9 °C 7.9 °C 1022.7 hPa Calm   3.2 km/h 82% 0.0 mm 137 W/m2
08:29 11 °C 8 °C 1022.7 hPa NNE 1.4 km/h 1.6 km/h 82% 0.0 mm 149 W/m2
08:34 11 °C 8 °C 1022.7 hPa East 1.4 km/h 3.2 km/h 82% 0.0 mm 162 W/m2
08:39 11.1 °C 8.1 °C 1023.0 hPa ENE 3.2 km/h 4.8 km/h 82% 0.0 mm 172 W/m2
08:44 11.1 °C 8 °C 1023.0 hPa East 3.2 km/h 3.2 km/h 81% 0.0 mm 186 W/m2
08:49 11.1 °C 8 °C 1023.0 hPa NE 3.2 km/h 4.8 km/h 81% 0.0 mm 204 W/m2
08:54 11.3 °C 8.2 °C 1022.7 hPa ENE 1.4 km/h 4.8 km/h 81% 0.0 mm 220 W/m2
08:59 11.4 °C 8.1 °C 1022.7 hPa East 6.4 km/h 9.7 km/h 80% 0.0 mm 246 W/m2
09:04 11.4 °C 7.9 °C 1022.7 hPa NE 3.2 km/h 8 km/h 79% 0.0 mm 330 W/m2
09:09 11.6 °C 8.3 °C 1022.7 hPa East 4.7 km/h 6.4 km/h 80% 0.0 mm 287 W/m2
09:14 11.6 °C 8.1 °C 1022.7 hPa ENE 6.4 km/h 6.4 km/h 79% 0.0 mm 299 W/m2
09:19 11.6 °C 8.1 °C 1022.7 hPa ENE 4.7 km/h 6.4 km/h 79% 0.0 mm 302 W/m2
09:24 11.7 °C 8.2 °C 1022.7 hPa Calm   4.8 km/h 79% 0.0 mm 297 W/m2
09:29 11.8 °C 8.5 °C 1022.7 hPa ENE 3.2 km/h 4.8 km/h 80% 0.0 mm 353 W/m2
09:34 11.9 °C 8.4 °C 1022.7 hPa ESE 3.2 km/h 4.8 km/h 79% 0.0 mm 348 W/m2
09:39 12 °C 8.5 °C 1022.7 hPa WNW 1.4 km/h 3.2 km/h 79% 0.0 mm 304 W/m2
09:44 12.1 °C 8.2 °C 1022.7 hPa East 3.2 km/h 9.7 km/h 77% 0.0 mm 279 W/m2
09:49 12.1 °C 8 °C 1022.7 hPa NNE 1.4 km/h 6.4 km/h 76% 0.0 mm 329 W/m2
09:54 12.2 °C 8.3 °C 1022.7 hPa SSE 7.9 km/h 8 km/h 77% 0.0 mm 410 W/m2
09:59 12.3 °C 8.4 °C 1022.7 hPa East 1.4 km/h 4.8 km/h 77% 0.0 mm 221 W/m2
10:04 12.4 °C 8.3 °C 1022.7 hPa ENE 4.7 km/h 6.4 km/h 76% 0.0 mm 292 W/m2
10:09 12.6 °C 8.5 °C 1022.7 hPa East 3.2 km/h 9.7 km/h 76% 0.0 mm 543 W/m2
10:14 12.8 °C 8.3 °C 1022.7 hPa ENE 4.7 km/h 8 km/h 74% 0.0 mm 645 W/m2
10:19 13.1 °C 8.4 °C 1022.7 hPa NE 1.4 km/h 4.8 km/h 73% 0.0 mm 554 W/m2
10:24 13.3 °C 8.4 °C 1022.7 hPa East 3.2 km/h 8 km/h 72% 0.0 mm 621 W/m2
10:29 13.3 °C 8.2 °C 1022.7 hPa ESE 4.7 km/h 11.3 km/h 71% 0.0 mm 176 W/m2
10:34 13.2 °C 8.3 °C 1022.7 hPa North 3.2 km/h 9.7 km/h 72% 0.0 mm 339 W/m2
10:39 13.2 °C 8.3 °C 1022.7 hPa East 4.7 km/h 6.4 km/h 72% 0.0 mm 427 W/m2
10:44 13.3 °C 7.9 °C 1022.7 hPa ENE 4.7 km/h 11.3 km/h 70% 0.0 mm 733 W/m2
10:49 13.4 °C 8 °C 1022.7 hPa SE 4.7 km/h 12.9 km/h 70% 0.0 mm 199 W/m2
10:54 13.4 °C 7.8 °C 1022.7 hPa East 3.2 km/h 6.4 km/h 69% 0.0 mm 206 W/m2
10:59 13.4 °C 7.8 °C 1022.7 hPa ENE 4.7 km/h 4.8 km/h 69% 0.0 mm 149 W/m2
11:04 13.6 °C 7.8 °C 1022.7 hPa East 4.7 km/h 4.8 km/h 68% 0.0 mm 905 W/m2
11:09 14 °C 7.5 °C 1022.7 hPa ENE 1.4 km/h 6.4 km/h 65% 0.0 mm 789 W/m2
11:14 14.2 °C 7.7 °C 1022.4 hPa NE 1.4 km/h 6.4 km/h 65% 0.0 mm 246 W/m2
11:19 14.4 °C 7.9 °C 1022.4 hPa East 3.2 km/h 11.3 km/h 65% 0.0 mm 889 W/m2
11:24 14.7 °C 8.4 °C 1022.4 hPa Calm   6.4 km/h 66% 0.0 mm 766 W/m2
11:29 14.8 °C 8.3 °C 1022.7 hPa NE 1.4 km/h 6.4 km/h 65% 0.0 mm 766 W/m2
11:34 14.9 °C 8.4 °C 1022.4 hPa East 9.7 km/h 14.5 km/h 65% 0.0 mm 912 W/m2
11:39 15.2 °C 8.4 °C 1022.4 hPa NW 4.7 km/h 11.3 km/h 64% 0.0 mm 900 W/m2
11:44 15.1 °C 8.3 °C 1022.4 hPa ENE 13 km/h 14.5 km/h 64% 0.0 mm 812 W/m2
11:49 15.1 °C 8.3 °C 1022.4 hPa SSW 3.2 km/h 6.4 km/h 64% 0.0 mm 684 W/m2
11:54 15.1 °C 8.3 °C 1022.4 hPa West 4.7 km/h 8 km/h 64% 0.0 mm 874 W/m2
11:59 15 °C 8.5 °C 1022.4 hPa ENE 9.7 km/h 9.7 km/h 65% 0.0 mm 197 W/m2
12:04 15.2 °C 8.7 °C 1022.4 hPa ENE 4.7 km/h 14.5 km/h 65% 0.0 mm 888 W/m2
12:09 15.4 °C 8.6 °C 1022.4 hPa ENE 1.4 km/h 11.3 km/h 64% 0.0 mm 888 W/m2
12:14 15.7 °C 8.7 °C 1022.0 hPa ENE 6.4 km/h 17.7 km/h 63% 0.0 mm 891 W/m2
12:19 15.8 °C 8.8 °C 1022.0 hPa East 6.4 km/h 14.5 km/h 63% 0.0 mm 886 W/m2
12:24 15.9 °C 8.6 °C 1022.0 hPa East 3.2 km/h 11.3 km/h 62% 0.0 mm 888 W/m2
12:29 16.1 °C 8.6 °C 1022.0 hPa ENE 13 km/h 17.7 km/h 61% 0.0 mm 884 W/m2
12:34 16.1 °C 8.6 °C 1022.0 hPa NE 3.2 km/h 14.5 km/h 61% 0.0 mm 900 W/m2
12:39 16.3 °C 8.5 °C 1021.7 hPa NNW 3.2 km/h 6.4 km/h 60% 0.0 mm 904 W/m2
12:44 16.6 °C 8.8 °C 1021.7 hPa NNW 3.2 km/h 14.5 km/h 60% 0.0 mm 914 W/m2
12:49 16.7 °C 9.1 °C 1021.7 hPa ENE 1.4 km/h 4.8 km/h 61% 0.0 mm 928 W/m2
12:54 16.9 °C 9.3 °C 1021.7 hPa ENE 1.4 km/h 6.4 km/h 61% 0.0 mm 937 W/m2
12:59 17.1 °C 9.3 °C 1021.7 hPa ENE 1.4 km/h 9.7 km/h 60% 0.0 mm 951 W/m2
13:04 17.1 °C 9.3 °C 1021.7 hPa Calm   6.4 km/h 60% 0.0 mm 944 W/m2
13:09 17.1 °C 9 °C 1021.7 hPa East 4.7 km/h 12.9 km/h 59% 0.0 mm 962 W/m2
13:15 16.8 °C 9.2 °C 1021.3 hPa Calm   6.4 km/h 61% 0.0 mm 958 W/m2
13:20 17.1 °C 9.8 °C 1021.3 hPa ESE 9.7 km/h 14.5 km/h 62% 0.0 mm 944 W/m2
13:25 17.3 °C 9.5 °C 1021.3 hPa North 4.7 km/h 9.7 km/h 60% 0.0 mm 889 W/m2
13:30 17.2 °C 8.9 °C 1021.3 hPa WNW 3.2 km/h 6.4 km/h 58% 0.0 mm 896 W/m2
13:35 17.2 °C 9.1 °C 1021.3 hPa Calm   8 km/h 59% 0.0 mm 914 W/m2
13:40 17.4 °C 9.8 °C 1021.3 hPa East 6.4 km/h 6.4 km/h 61% 0.0 mm 954 W/m2
13:45 17.4 °C 9.3 °C 1021.3 hPa East 4.7 km/h 12.9 km/h 59% 0.0 mm 928 W/m2
13:50 17.4 °C 9.1 °C 1021.3 hPa Calm   4.8 km/h 58% 0.0 mm 940 W/m2
13:55 17.3 °C 9 °C 1021.3 hPa NNE 3.2 km/h 8 km/h 58% 0.0 mm 250 W/m2
14:00 17.6 °C 9.5 °C 1021.3 hPa SE 3.2 km/h 6.4 km/h 59% 0.0 mm 939 W/m2
14:05 17.6 °C 9.5 °C 1021.0 hPa East 6.4 km/h 6.4 km/h 59% 0.0 mm 647 W/m2
14:10 17.7 °C 9.1 °C 1021.3 hPa ESE 4.7 km/h 14.5 km/h 57% 0.0 mm 991 W/m2
14:15 17.9 °C 9.8 °C 1021.0 hPa East 3.2 km/h 8 km/h 59% 0.0 mm 1035 W/m2
14:20 18.2 °C 9 °C 1021.0 hPa North 4.7 km/h 11.3 km/h 55% 0.0 mm 925 W/m2
14:25 18.3 °C 9.4 °C 1021.0 hPa NE 4.7 km/h 11.3 km/h 56% 0.0 mm 1088 W/m2
14:30 18.4 °C 9.5 °C 1021.0 hPa South 3.2 km/h 8 km/h 56% 0.0 mm 1081 W/m2
14:35 18.5 °C 9.3 °C 1021.0 hPa ESE 6.4 km/h 9.7 km/h 55% 0.0 mm 1021 W/m2
14:40 18.8 °C 9.8 °C 1021.0 hPa ESE 3.2 km/h 4.8 km/h 56% 0.0 mm 990 W/m2
14:45 18.9 °C 9.1 °C 1021.0 hPa ENE 1.4 km/h 6.4 km/h 53% 0.0 mm 990 W/m2
14:50 18.8 °C 9 °C 1020.7 hPa North 6.4 km/h 17.7 km/h 53% 0.0 mm 452 W/m2
14:55 18.7 °C 9.2 °C 1021.0 hPa ENE 3.2 km/h 9.7 km/h 54% 0.0 mm 304 W/m2
15:00 18.7 °C 9.7 °C 1021.0 hPa ENE 4.7 km/h 14.5 km/h 56% 0.0 mm 786 W/m2
15:05 18.7 °C 9.2 °C 1020.7 hPa East 4.7 km/h 8 km/h 54% 0.0 mm 770 W/m2
15:10 18.8 °C 9.6 °C 1020.7 hPa East 3.2 km/h 11.3 km/h 55% 0.0 mm 726 W/m2
15:15 18.9 °C 9.7 °C 1020.7 hPa SE 3.2 km/h 6.4 km/h 55% 0.0 mm 844 W/m2
15:20 19.1 °C 9.6 °C 1020.7 hPa ENE 1.4 km/h 11.3 km/h 54% 0.0 mm 520 W/m2
15:25 19.1 °C 9.3 °C 1020.7 hPa ESE 4.7 km/h 9.7 km/h 53% 0.0 mm 605 W/m2
15:30 19.1 °C 9.3 °C 1020.7 hPa ENE 3.2 km/h 6.4 km/h 53% 0.0 mm 891 W/m2
15:35 19.3 °C 9.8 °C 1020.7 hPa ENE 9.7 km/h 9.7 km/h 54% 0.0 mm 947 W/m2
15:40 19.6 °C 9.8 °C 1020.7 hPa ESE 3.2 km/h 14.5 km/h 53% 0.0 mm 872 W/m2
15:45 19.6 °C 9.2 °C 1020.7 hPa ESE 6.4 km/h 9.7 km/h 51% 0.0 mm 914 W/m2
15:50 19.5 °C 9.4 °C 1020.7 hPa SE 4.7 km/h 14.5 km/h 52% 0.0 mm 663 W/m2
15:55 19.5 °C 9.9 °C 1020.7 hPa NNW 4.7 km/h 11.3 km/h 54% 0.0 mm 946 W/m2
16:00 19.6 °C 9.5 °C 1020.7 hPa SE 4.7 km/h 6.4 km/h 52% 0.0 mm 868 W/m2
16:05 19.7 °C 9.3 °C 1020.7 hPa ESE 3.2 km/h 8 km/h 51% 0.0 mm 918 W/m2
16:10 19.7 °C 9 °C 1020.7 hPa Calm   8 km/h 50% 0.0 mm 800 W/m2
16:15 19.8 °C 9.7 °C 1020.7 hPa ESE 4.7 km/h 12.9 km/h 52% 0.0 mm 780 W/m2
16:20 20 °C 9.6 °C 1020.7 hPa ENE 3.2 km/h 12.9 km/h 51% 0.0 mm 837 W/m2
16:25 20.2 °C 9.4 °C 1020.7 hPa NNW 4.7 km/h 12.9 km/h 50% 0.0 mm 809 W/m2
16:30 20.1 °C 9.1 °C 1020.7 hPa ENE 1.4 km/h 9.7 km/h 49% 0.0 mm 803 W/m2
16:35 19.9 °C 9.8 °C 1020.7 hPa NNE 4.7 km/h 6.4 km/h 52% 0.0 mm 807 W/m2
16:40 20.1 °C 10.2 °C 1020.7 hPa East 11.1 km/h 11.3 km/h 53% 0.0 mm 851 W/m2
16:45 20.1 °C 9.4 °C 1020.7 hPa ENE 9.7 km/h 9.7 km/h 50% 0.0 mm 854 W/m2
16:50 20.3 °C 9.8 °C 1020.7 hPa ESE 4.7 km/h 6.4 km/h 51% 0.0 mm 863 W/m2
16:55 20.1 °C 9.1 °C 1020.7 hPa Calm   1.6 km/h 49% 0.0 mm 188 W/m2
17:00 20 °C 9.3 °C 1020.3 hPa East 3.2 km/h 8 km/h 50% 0.0 mm 635 W/m2
17:05 20 °C 9.8 °C 1020.3 hPa East 4.7 km/h 6.4 km/h 52% 0.0 mm 691 W/m2
17:10 20.2 °C 9.7 °C 1020.3 hPa ESE 3.2 km/h 6.4 km/h 51% 0.0 mm 782 W/m2
17:16 20.4 °C 9.6 °C 1020.3 hPa SSE 6.4 km/h 11.3 km/h 50% 0.0 mm 793 W/m2
17:21 20.4 °C 9.3 °C 1020.3 hPa East 1.4 km/h 8 km/h 49% 0.0 mm 371 W/m2
17:26 20.2 °C 9.4 °C 1020.0 hPa SE 3.2 km/h 6.4 km/h 50% 0.0 mm 294 W/m2
17:31 20.1 °C 9.9 °C 1020.0 hPa ESE 6.4 km/h 6.4 km/h 52% 0.0 mm 515 W/m2
17:36 20 °C 9 °C 1020.0 hPa NE 1.4 km/h 3.2 km/h 49% 0.0 mm 287 W/m2
17:41 20 °C 9.6 °C 1020.0 hPa ENE 1.4 km/h 3.2 km/h 51% 0.0 mm 640 W/m2
17:46 19.9 °C 9.2 °C 1020.0 hPa Calm   3.2 km/h 50% 0.0 mm 269 W/m2
17:51 19.8 °C 9.4 °C 1020.0 hPa ENE 3.2 km/h 6.4 km/h 51% 0.0 mm 272 W/m2
17:56 19.7 °C 9.6 °C 1020.0 hPa South 1.4 km/h 14.5 km/h 52% 0.0 mm 211 W/m2
18:01 19.5 °C 9.4 °C 1019.6 hPa NE 3.2 km/h 6.4 km/h 52% 0.0 mm 250 W/m2
18:06 19.4 °C 9.3 °C 1019.6 hPa Calm   14.5 km/h 52% 0.0 mm 287 W/m2
18:11 19.4 °C 9.3 °C 1019.6 hPa East 4.7 km/h 9.7 km/h 52% 0.0 mm 294 W/m2
18:16 19.4 °C 9.6 °C 1019.6 hPa Calm   4.8 km/h 53% 0.0 mm 257 W/m2
18:21 19.4 °C 9 °C 1019.6 hPa NE 4.7 km/h 9.7 km/h 51% 0.0 mm 241 W/m2
18:26 19.7 °C 9.6 °C 1019.6 hPa ESE 1.4 km/h 4.8 km/h 52% 0.0 mm 445 W/m2
18:31 19.9 °C 9.2 °C 1019.6 hPa East 3.2 km/h 8 km/h 50% 0.0 mm 345 W/m2
18:36 19.8 °C 9.4 °C 1019.6 hPa ENE 4.7 km/h 4.8 km/h 51% 0.0 mm 167 W/m2
18:41 19.6 °C 8.9 °C 1019.6 hPa East 1.4 km/h 4.8 km/h 50% 0.0 mm 158 W/m2
18:46 19.3 °C 8.9 °C 1019.6 hPa ENE 3.2 km/h 8 km/h 51% 0.0 mm 160 W/m2
18:51 19.2 °C 9.4 °C 1019.6 hPa East 1.4 km/h 6.4 km/h 53% 0.0 mm 197 W/m2
18:56 19.2 °C 9.1 °C 1019.6 hPa East 3.2 km/h 3.2 km/h 52% 0.0 mm 236 W/m2
19:01 19.3 °C 8.9 °C 1019.6 hPa ENE 4.7 km/h 9.7 km/h 51% 0.0 mm 165 W/m2
19:06 19.3 °C 9.2 °C 1019.6 hPa ENE 1.4 km/h 3.2 km/h 52% 0.0 mm 144 W/m2
19:11 19.2 °C 8.8 °C 1019.6 hPa NE 3.2 km/h 9.7 km/h 51% 0.0 mm 144 W/m2
19:16 19.1 °C 9 °C 1019.6 hPa ESE 1.4 km/h 3.2 km/h 52% 0.0 mm 267 W/m2
19:21 19.1 °C 9 °C 1019.6 hPa East 3.2 km/h 9.7 km/h 52% 0.0 mm 227 W/m2
19:26 19.2 °C 8.5 °C 1019.6 hPa ESE 6.4 km/h 14.5 km/h 50% 0.0 mm 255 W/m2
19:31 19.1 °C 9 °C 1019.6 hPa ESE 1.4 km/h 3.2 km/h 52% 0.0 mm 134 W/m2
19:36 19 °C 8.9 °C 1020.0 hPa East 1.4 km/h 14.5 km/h 52% 0.0 mm 98 W/m2
19:41 18.8 °C 8.4 °C 1020.0 hPa East 3.2 km/h 11.3 km/h 51% 0.0 mm 84 W/m2
19:46 18.7 °C 8.9 °C 1020.0 hPa NNE 7.9 km/h 8 km/h 53% 0.0 mm 90 W/m2
19:51 18.6 °C 8.8 °C 1020.0 hPa East 1.4 km/h 11.3 km/h 53% 0.0 mm 84 W/m2
19:56 18.5 °C 8.7 °C 1020.0 hPa NNE 3.2 km/h 9.7 km/h 53% 0.0 mm 77 W/m2
20:01 18.4 °C 8.6 °C 1020.0 hPa ESE 3.2 km/h 4.8 km/h 53% 0.0 mm 74 W/m2
20:06 18.3 °C 8.8 °C 1020.0 hPa East 3.2 km/h 6.4 km/h 54% 0.0 mm 70 W/m2
20:11 18.2 °C 9.3 °C 1020.0 hPa Calm   3.2 km/h 56% 0.0 mm 67 W/m2
20:16 18.1 °C 8.9 °C 1020.0 hPa ESE 3.2 km/h 3.2 km/h 55% 0.0 mm 63 W/m2
20:21 17.9 °C 8.5 °C 1020.0 hPa Calm   11.3 km/h 54% 0.0 mm 51 W/m2
20:26 17.8 °C 8.9 °C 1020.0 hPa Calm   4.8 km/h 56% 0.0 mm 42 W/m2
20:31 17.7 °C 8.8 °C 1020.0 hPa ESE 3.2 km/h 11.3 km/h 56% 0.0 mm 39 W/m2
20:36 17.5 °C 8.9 °C 1020.0 hPa Calm   1.6 km/h 57% 0.0 mm 33 W/m2
20:41 17.4 °C 8.3 °C 1020.0 hPa ESE 4.7 km/h 12.9 km/h 55% 0.0 mm 30 W/m2
20:46 17.3 °C 8.4 °C 1020.0 hPa ENE 4.7 km/h 14.5 km/h 56% 0.0 mm 26 W/m2
20:51 17.2 °C 8.3 °C 1020.0 hPa East 1.4 km/h 4.8 km/h 56% 0.0 mm 26 W/m2
20:56 17.1 °C 8.3 °C 1020.0 hPa Calm   12.9 km/h 56% 0.0 mm 25 W/m2
21:01 17 °C 8.7 °C 1020.0 hPa SE 1.4 km/h 1.6 km/h 58% 0.0 mm 18 W/m2
21:06 16.9 °C 8.8 °C 1020.3 hPa Calm   4.8 km/h 59% 0.0 mm 14 W/m2
21:11 16.7 °C 8.6 °C 1020.3 hPa Calm   1.6 km/h 59% 0.0 mm 9 W/m2
21:17 16.6 °C 9 °C 1020.3 hPa Calm   3.2 km/h 61% 0.0 mm 5 W/m2
21:22 16.4 °C 9.3 °C 1020.3 hPa Calm     63% 0.0 mm 0 W/m2
21:27 16.2 °C 9.4 °C 1020.3 hPa Calm   3.2 km/h 64% 0.0 mm 0 W/m2
21:32 16.1 °C 9.3 °C 1020.3 hPa Calm   1.6 km/h 64% 0.0 mm 0 W/m2
21:37 15.8 °C 9 °C 1020.3 hPa Calm     64% 0.0 mm 0 W/m2
21:42 15.7 °C 9.1 °C 1020.3 hPa Calm     65% 0.0 mm 0 W/m2
21:47 15.6 °C 9.3 °C 1020.3 hPa Calm     66% 0.0 mm 0 W/m2
21:52 15.4 °C 9.3 °C 1020.3 hPa Calm   1.6 km/h 67% 0.0 mm 0 W/m2
21:57 15.3 °C 9.4 °C 1020.3 hPa Calm     68% 0.0 mm 0 W/m2
22:02 15.2 °C 9.3 °C 1020.7 hPa Calm   1.6 km/h 68% 0.0 mm 0 W/m2
22:07 15.1 °C 9.2 °C 1020.7 hPa Calm   3.2 km/h 68% 0.0 mm 0 W/m2
22:12 14.9 °C 9.3 °C 1020.7 hPa Calm     69% 0.0 mm 0 W/m2
22:17 14.9 °C 9 °C 1020.7 hPa Calm   1.6 km/h 68% 0.0 mm 0 W/m2
22:22 14.9 °C 9.5 °C 1020.7 hPa Calm     70% 0.0 mm 0 W/m2
22:27 14.8 °C 9.2 °C 1020.7 hPa Calm     69% 0.0 mm 0 W/m2
22:32 14.7 °C 9.1 °C 1020.7 hPa Calm     69% 0.0 mm 0 W/m2
22:37 14.6 °C 8.8 °C 1020.7 hPa SE 1.4 km/h 3.2 km/h 68% 0.0 mm 0 W/m2
22:42 14.6 °C 8.5 °C 1021.0 hPa Calm   3.2 km/h 67% 0.0 mm 0 W/m2
22:47 14.7 °C 8.9 °C 1021.0 hPa Calm   1.6 km/h 68% 0.0 mm 0 W/m2
22:52 14.7 °C 9.1 °C 1021.0 hPa Calm     69% 0.0 mm 0 W/m2
22:57 14.6 °C 9 °C 1021.0 hPa Calm     69% 0.0 mm 0 W/m2
23:02 14.5 °C 8.7 °C 1021.0 hPa Calm   1.6 km/h 68% 0.0 mm 0 W/m2
23:07 14.4 °C 8.6 °C 1021.0 hPa ESE 1.4 km/h 1.6 km/h 68% 0.0 mm 0 W/m2
23:12 14.3 °C 8.7 °C 1021.0 hPa ESE 1.4 km/h 3.2 km/h 69% 0.0 mm 0 W/m2
23:17 14.3 °C 8.7 °C 1021.0 hPa Calm     69% 0.0 mm 0 W/m2
23:22 14.2 °C 8.8 °C 1021.0 hPa Calm   3.2 km/h 70% 0.0 mm 0 W/m2
23:27 14.1 °C 8.9 °C 1021.0 hPa Calm     71% 0.0 mm 0 W/m2
23:32 14.1 °C 8.9 °C 1021.0 hPa Calm     71% 0.0 mm 0 W/m2
23:37 13.9 °C 8.7 °C 1021.0 hPa Calm     71% 0.0 mm 0 W/m2
23:42 13.8 °C 8.8 °C 1021.0 hPa Calm     72% 0.0 mm 0 W/m2
23:47 13.8 °C 8.8 °C 1021.0 hPa Calm   1.6 km/h 72% 0.0 mm 0 W/m2
23:52 13.7 °C 8.9 °C 1021.0 hPa ESE 1.4 km/h 1.6 km/h 73% 0.0 mm 0 W/m2
23:57 13.6 °C 8.9 °C 1021.0 hPa Calm   1.6 km/h 73% 0.0 mm 0 W/m2
Juneau County Weather
Compliments of Weather Underground - 4 mb